Airfield :
LOGIN :

Register | Disclaimer

   EN    FR    IT 

 










Legend :    VFR   Marginal VFR   IFR   Intensive IFR   Very Intensive IFR
Visi :
Ceiling :
>= 8 km
>= 3000ft
5 to 8 km
1000 to 3000 ft
1500m to 5 km
500 to 1000 ft
800 to 1500m
200 to 500 ft
< 800m
< 200 ft
Symbols :   Thunderstorms  Fog  Heavy snow  Heavy precipitations  Wind > 20 kt
SIGMETs :     Misc.  Thunderstorms  Icing  Turbulence  Mountain Waves  Volcanic Ashes






- Airport Elevation : 171 ft
- IATA code : EGC


LFBE - Bergerac

CURRENT METAR :
  • 022100Z AUTO 25004KT CAVOK 06/05 Q1019 TEMPO 3000 BR

EXPIRED METARs :
  • 022030Z AUTO 27005KT 9999 FEW043 OVC049 06/05 Q1019 TEMPO 3000 BR
  • 022000Z AUTO 26005KT 9999 OVC049 05/05 Q1019 NOSIG
  • 021930Z AUTO 23002KT 6000 OVC047 05/04 Q1019 NOSIG
  • 021900Z AUTO 30003KT 7000 SCT024 BKN046 OVC052 04/04 Q1019 NOSIG
  • 021830Z AUTO 23002KT 6000 FEW019 BKN047 BKN220 05/04 Q1019 NOSIG

TAF TAF LFBE
Valid from the 02 at 18:00 until the 03 at 18:00 UTC


021700Z 0218/0318 VRB03KT 9999 BKN030
PROB40
TEMPO 0222/0303 3000 BR NSC
BECMG 0303/0305 BKN005
TEMPO 0303/0313 20010KT 3000 -RA BR
BECMG 0313/0315 21015KT BKN040
TEMPO 0316/0318 21015G25KT 3000 RA



MET'MAP, your aeronautical weather chart ! - Copyright ORBIFLY December 2007 - Disclaimer

ORBIFLY MET'MAP TEAM :

Programming & Development : Alexandra Zaïnal
Concept & original design : Baudouin d'Aumeries
Assistance for programming : Marc-Olivier Méhu
Technical & hardware support : Manuel Goepfert

Contact : metmap@orbifly.com




SOURCES & CREDITS :

   NOAA